createdAt,value
2022-12-18T00:00:42.197Z,990.73
2022-12-18T00:01:42.201Z,990.64
2022-12-18T00:02:42.239Z,990.72
2022-12-18T00:03:42.638Z,990.71
2022-12-18T00:04:42.124Z,990.68
2022-12-18T00:05:42.112Z,990.81
2022-12-18T00:06:42.081Z,990.99
2022-12-18T00:07:42.080Z,991.27
2022-12-18T00:08:42.061Z,991.48
2022-12-18T00:09:42.043Z,991.71
2022-12-18T00:10:42.042Z,991.78
2022-12-18T00:11:42.049Z,991.82
2022-12-18T00:12:42.008Z,991.86
2022-12-18T00:13:42.279Z,991.71
2022-12-18T00:14:42.008Z,991.47
2022-12-18T00:15:42.264Z,991.24
2022-12-18T00:16:42.022Z,991.13
2022-12-18T00:17:41.961Z,991.25
2022-12-18T00:18:42.225Z,991.36
2022-12-18T00:19:41.954Z,991.02
2022-12-18T00:20:41.921Z,991.05
2022-12-18T00:21:41.943Z,991.00
2022-12-18T00:22:41.920Z,990.87
2022-12-18T00:23:42.517Z,990.71
2022-12-18T00:24:41.879Z,990.58
2022-12-18T00:25:41.930Z,990.73
2022-12-18T00:26:41.900Z,990.90
2022-12-18T00:27:41.847Z,990.98
2022-12-18T00:28:41.851Z,991.07
2022-12-18T00:29:41.829Z,990.98
2022-12-18T00:30:41.816Z,991.04
2022-12-18T00:31:42.103Z,990.98
2022-12-18T00:32:41.823Z,991.03
2022-12-18T00:33:42.166Z,990.96
2022-12-18T00:34:41.771Z,991.01
2022-12-18T00:35:41.778Z,990.75
2022-12-18T00:36:41.772Z,990.60
2022-12-18T00:37:41.747Z,990.35
2022-12-18T00:38:41.752Z,990.13
2022-12-18T00:39:41.730Z,989.92
2022-12-18T00:40:41.718Z,989.97
2022-12-18T00:41:41.700Z,990.08
2022-12-18T00:42:41.708Z,990.21
2022-12-18T00:43:41.991Z,990.67
2022-12-18T00:44:41.669Z,991.01
2022-12-18T00:45:41.719Z,991.06
2022-12-18T00:46:41.683Z,990.72
2022-12-18T00:47:41.625Z,990.58
2022-12-18T00:48:41.619Z,990.45
2022-12-18T00:49:41.609Z,990.13
2022-12-18T00:50:41.608Z,990.28
2022-12-18T00:51:41.580Z,990.44
2022-12-18T00:52:41.601Z,990.48
2022-12-18T00:53:41.689Z,990.48
2022-12-18T00:54:41.560Z,990.54
2022-12-18T00:55:41.541Z,990.48
2022-12-18T00:56:49.714Z,990.43
2022-12-18T00:57:42.552Z,990.12
2022-12-18T00:58:41.520Z,989.95
2022-12-18T00:59:41.511Z,989.77
2022-12-18T01:00:41.547Z,989.61
2022-12-18T01:01:41.591Z,989.57
2022-12-18T01:02:41.690Z,989.72
2022-12-18T01:03:41.729Z,989.66
2022-12-18T01:04:41.456Z,989.70
2022-12-18T01:05:41.448Z,989.71
2022-12-18T01:06:41.437Z,989.74
2022-12-18T01:07:41.428Z,989.87
2022-12-18T01:08:41.668Z,989.94
2022-12-18T01:09:41.387Z,989.82
2022-12-18T01:10:41.387Z,989.96
2022-12-18T01:11:41.379Z,990.00
2022-12-18T01:12:41.377Z,989.85
2022-12-18T01:13:41.760Z,989.88
2022-12-18T01:14:41.347Z,989.95
2022-12-18T01:15:41.338Z,989.82
2022-12-18T01:16:41.397Z,989.52
2022-12-18T01:17:41.327Z,989.21
2022-12-18T01:18:41.276Z,988.87
2022-12-18T01:19:41.296Z,988.70
2022-12-18T01:20:41.268Z,988.48
2022-12-18T01:21:41.265Z,988.32
2022-12-18T01:22:41.247Z,988.39
2022-12-18T01:23:41.768Z,988.39
2022-12-18T01:24:41.249Z,988.15
2022-12-18T01:25:41.217Z,988.28
2022-12-18T01:26:41.207Z,988.45
2022-12-18T01:27:41.225Z,988.70
2022-12-18T01:28:41.202Z,988.71
2022-12-18T01:29:41.182Z,988.80
2022-12-18T01:30:41.176Z,989.04
2022-12-18T01:31:41.200Z,989.16
2022-12-18T01:32:41.160Z,988.96
2022-12-18T01:33:41.563Z,988.84
2022-12-18T01:34:41.149Z,988.69
2022-12-18T01:35:41.114Z,988.54
2022-12-18T01:36:41.098Z,988.39
2022-12-18T01:37:41.114Z,988.40
2022-12-18T01:38:41.088Z,988.28
2022-12-18T01:39:41.075Z,988.35
2022-12-18T01:40:41.065Z,988.59
2022-12-18T01:41:41.069Z,988.54
2022-12-18T01:42:41.047Z,988.28
2022-12-18T01:43:41.284Z,988.12
2022-12-18T01:44:41.015Z,987.95
2022-12-18T01:45:41.040Z,987.84
2022-12-18T01:46:40.990Z,987.36
2022-12-18T01:47:40.982Z,987.24
2022-12-18T01:48:40.995Z,987.36
2022-12-18T01:49:40.955Z,987.57
2022-12-18T01:50:40.951Z,988.29
2022-12-18T01:51:40.969Z,988.47
2022-12-18T01:52:40.966Z,988.49
2022-12-18T01:53:41.191Z,988.44
2022-12-18T01:54:40.915Z,988.12
2022-12-18T01:55:40.901Z,988.11
2022-12-18T01:56:43.633Z,988.37
2022-12-18T01:57:40.876Z,988.38
2022-12-18T01:58:40.873Z,988.54
2022-12-18T01:59:40.869Z,988.58
2022-12-18T02:00:40.901Z,988.58
2022-12-18T02:01:40.983Z,988.39
2022-12-18T02:02:40.915Z,988.24
2022-12-18T02:03:41.176Z,988.19
2022-12-18T02:04:43.913Z,988.05
2022-12-18T02:05:41.796Z,988.48
2022-12-18T02:06:40.780Z,988.64
2022-12-18T02:07:40.773Z,988.60
2022-12-18T02:08:40.790Z,988.49
2022-12-18T02:09:40.753Z,988.74
2022-12-18T02:10:40.731Z,989.19
2022-12-18T02:11:40.725Z,989.18
2022-12-18T02:12:40.745Z,989.20
2022-12-18T02:13:41.039Z,989.28
2022-12-18T02:14:40.702Z,989.85
2022-12-18T02:15:40.693Z,989.81
2022-12-18T02:16:40.735Z,989.70
2022-12-18T02:17:40.674Z,989.77
2022-12-18T02:18:40.641Z,990.01
2022-12-18T02:19:40.653Z,990.04
2022-12-18T02:20:40.876Z,990.11
2022-12-18T02:21:40.623Z,990.25
2022-12-18T02:22:40.636Z,990.37
2022-12-18T02:23:40.922Z,990.61
2022-12-18T02:24:40.581Z,990.72
2022-12-18T02:25:40.592Z,990.46
2022-12-18T02:26:40.562Z,990.21
2022-12-18T02:27:40.574Z,989.78
2022-12-18T02:28:40.535Z,989.28
2022-12-18T02:29:40.541Z,989.03
2022-12-18T02:30:40.563Z,988.58
2022-12-18T02:31:40.519Z,988.35
2022-12-18T02:32:40.511Z,988.44
2022-12-18T02:33:40.931Z,988.16
2022-12-18T02:34:40.470Z,988.06
2022-12-18T02:35:40.470Z,988.08
2022-12-18T02:36:40.465Z,987.83
2022-12-18T02:37:40.481Z,987.31
2022-12-18T02:38:40.430Z,986.53
2022-12-18T02:39:40.420Z,986.44
2022-12-18T02:40:40.423Z,985.84
2022-12-18T02:41:40.410Z,985.72
2022-12-18T02:42:40.390Z,985.59
2022-12-18T02:43:40.761Z,985.69
2022-12-18T02:44:40.380Z,985.65
2022-12-18T02:45:40.390Z,985.59
2022-12-18T02:46:40.351Z,984.93
2022-12-18T02:47:40.369Z,984.28
2022-12-18T02:48:40.589Z,982.91
2022-12-18T02:49:40.313Z,981.56
2022-12-18T02:50:40.340Z,981.71
2022-12-18T02:51:40.300Z,981.63
2022-12-18T02:52:40.323Z,980.78
2022-12-18T02:53:40.669Z,980.57
2022-12-18T02:54:40.278Z,980.06
2022-12-18T02:55:40.262Z,980.56
2022-12-18T02:56:40.258Z,979.41
2022-12-18T02:57:40.250Z,977.46
2022-12-18T02:58:40.266Z,976.62
2022-12-18T02:59:40.227Z,976.67
2022-12-18T03:00:40.212Z,977.05
2022-12-18T03:01:40.347Z,977.37
2022-12-18T03:02:40.515Z,977.46
2022-12-18T03:03:40.516Z,977.81
2022-12-18T03:04:40.179Z,977.49
2022-12-18T03:05:40.160Z,978.19
2022-12-18T03:06:40.149Z,978.24
2022-12-18T03:07:40.159Z,978.36
2022-12-18T03:08:40.146Z,978.03
2022-12-18T03:09:40.109Z,977.61
2022-12-18T03:10:40.108Z,977.09
2022-12-18T03:11:40.098Z,975.78
2022-12-18T03:12:40.105Z,975.57
2022-12-18T03:13:40.469Z,975.29
2022-12-18T03:14:40.068Z,974.60
2022-12-18T03:15:40.048Z,973.76
2022-12-18T03:16:40.069Z,973.56
2022-12-18T03:17:40.025Z,972.78
2022-12-18T03:18:40.038Z,972.07
2022-12-18T03:19:40.007Z,973.35
2022-12-18T03:20:39.996Z,973.28
2022-12-18T03:21:40.001Z,972.12
2022-12-18T03:22:39.978Z,971.40
2022-12-18T03:23:40.431Z,971.33
2022-12-18T03:24:39.945Z,970.42
2022-12-18T03:25:39.957Z,969.73
2022-12-18T03:26:39.925Z,969.77
2022-12-18T03:27:39.918Z,969.80
2022-12-18T03:28:39.931Z,969.78
2022-12-18T03:29:39.906Z,969.70
2022-12-18T03:30:39.975Z,968.96
2022-12-18T03:31:39.879Z,967.82
2022-12-18T03:32:39.890Z,967.25
2022-12-18T03:33:40.197Z,966.73
2022-12-18T03:34:39.829Z,966.86
2022-12-18T03:35:39.845Z,967.15
2022-12-18T03:36:39.816Z,967.39
2022-12-18T03:37:39.831Z,967.57
2022-12-18T03:38:39.797Z,967.76
2022-12-18T03:39:39.806Z,967.99
2022-12-18T03:40:39.777Z,967.64
2022-12-18T03:41:39.766Z,967.00
2022-12-18T03:42:39.774Z,965.74
2022-12-18T03:43:40.143Z,965.97
2022-12-18T03:44:39.745Z,965.67
2022-12-18T03:45:39.780Z,966.27
2022-12-18T03:46:39.734Z,966.81
2022-12-18T03:47:39.725Z,967.09
2022-12-18T03:48:39.685Z,967.46
2022-12-18T03:49:39.706Z,967.99
2022-12-18T03:50:39.690Z,967.31
2022-12-18T03:51:39.665Z,967.14
2022-12-18T03:52:39.689Z,967.74
2022-12-18T03:53:39.985Z,967.84
2022-12-18T03:54:39.655Z,968.60
2022-12-18T03:55:39.645Z,969.49
2022-12-18T03:56:39.625Z,968.96
2022-12-18T03:57:39.637Z,968.68
2022-12-18T03:58:39.602Z,968.45
2022-12-18T03:59:39.609Z,968.44
2022-12-18T04:00:39.595Z,968.67
2022-12-18T04:01:39.716Z,968.65
2022-12-18T04:02:39.661Z,968.49
2022-12-18T04:03:40.137Z,968.08
2022-12-18T04:04:39.563Z,967.67
2022-12-18T04:05:39.537Z,968.63
2022-12-18T04:06:39.515Z,968.13
2022-12-18T04:07:39.555Z,967.89
2022-12-18T04:08:39.497Z,967.81
2022-12-18T04:09:39.476Z,968.11
2022-12-18T04:10:39.483Z,968.18
2022-12-18T04:11:39.478Z,968.95
2022-12-18T04:12:39.444Z,969.43
2022-12-18T04:13:39.804Z,969.73
2022-12-18T04:14:39.455Z,969.55
2022-12-18T04:15:39.442Z,969.15
2022-12-18T04:16:39.394Z,968.82
2022-12-18T04:17:39.405Z,968.37
2022-12-18T04:18:39.403Z,967.04
2022-12-18T04:19:39.383Z,966.28
2022-12-18T04:20:39.383Z,965.71
2022-12-18T04:21:39.376Z,965.13
2022-12-18T04:22:39.364Z,964.99
2022-12-18T04:23:39.722Z,964.32
2022-12-18T04:24:39.347Z,964.39
2022-12-18T04:25:39.314Z,963.89
2022-12-18T04:26:39.330Z,964.06
2022-12-18T04:27:39.324Z,964.28
2022-12-18T04:28:39.315Z,964.07
2022-12-18T04:29:39.273Z,963.63
2022-12-18T04:30:39.286Z,962.38
2022-12-18T04:31:39.263Z,961.62
2022-12-18T04:32:39.254Z,960.69
2022-12-18T04:33:39.638Z,960.66
2022-12-18T04:34:39.272Z,960.66
2022-12-18T04:35:39.247Z,960.39
2022-12-18T04:36:39.202Z,960.15
2022-12-18T04:37:39.203Z,959.93
2022-12-18T04:38:39.186Z,959.21
2022-12-18T04:39:39.181Z,959.97
2022-12-18T04:40:39.162Z,961.21
2022-12-18T04:41:39.162Z,961.11
2022-12-18T04:42:39.222Z,959.82
2022-12-18T04:43:39.525Z,959.90
2022-12-18T04:44:39.141Z,960.41
2022-12-18T04:45:39.111Z,960.57
2022-12-18T04:46:39.228Z,959.16
2022-12-18T04:47:39.110Z,957.91
2022-12-18T04:48:39.093Z,956.85
2022-12-18T04:49:39.072Z,957.10
2022-12-18T04:50:39.072Z,958.05
2022-12-18T04:51:39.052Z,958.92
2022-12-18T04:52:39.333Z,959.49
2022-12-18T04:53:39.358Z,958.42
2022-12-18T04:54:39.030Z,958.36
2022-12-18T04:55:39.011Z,958.47
2022-12-18T04:56:39.017Z,958.77
2022-12-18T04:57:38.991Z,961.50
2022-12-18T04:58:38.980Z,962.22
2022-12-18T04:59:38.971Z,961.95
2022-12-18T05:00:38.981Z,963.13
2022-12-18T05:01:39.041Z,962.82
2022-12-18T05:02:39.021Z,960.91
2022-12-18T05:03:39.526Z,962.40
2022-12-18T05:04:38.910Z,964.47
2022-12-18T05:05:38.930Z,963.77
2022-12-18T05:06:39.161Z,962.69
2022-12-18T05:07:38.902Z,962.62
2022-12-18T05:08:38.861Z,962.21
2022-12-18T05:09:38.887Z,962.73
2022-12-18T05:10:38.865Z,963.77
2022-12-18T05:11:38.839Z,963.77
2022-12-18T05:12:38.914Z,963.44
2022-12-18T05:13:39.252Z,963.76
2022-12-18T05:14:38.801Z,964.04
2022-12-18T05:15:38.823Z,964.29
2022-12-18T05:16:38.819Z,964.68
2022-12-18T05:17:38.801Z,964.78
2022-12-18T05:18:38.758Z,965.21
2022-12-18T05:19:38.752Z,964.44
2022-12-18T05:20:38.761Z,964.13
2022-12-18T05:21:38.728Z,963.56
2022-12-18T05:22:38.798Z,962.36
2022-12-18T05:23:39.051Z,962.51
2022-12-18T05:24:38.699Z,963.84
2022-12-18T05:25:38.699Z,964.44
2022-12-18T05:26:38.696Z,964.61
2022-12-18T05:27:38.708Z,964.41
2022-12-18T05:28:38.668Z,962.90
2022-12-18T05:29:38.649Z,962.58
2022-12-18T05:30:38.674Z,962.38
2022-12-18T05:31:39.808Z,962.06
2022-12-18T05:32:38.637Z,962.05
2022-12-18T05:33:39.024Z,961.55
2022-12-18T05:34:39.379Z,961.12
2022-12-18T05:35:38.586Z,960.81
2022-12-18T05:36:38.573Z,960.67
2022-12-18T05:37:43.035Z,961.65
2022-12-18T05:38:38.568Z,962.09
2022-12-18T05:39:38.543Z,962.85
2022-12-18T05:40:38.558Z,962.30
2022-12-18T05:41:38.549Z,962.40
2022-12-18T05:42:38.537Z,962.25
2022-12-18T05:43:38.812Z,963.70
2022-12-18T05:44:38.516Z,963.44
2022-12-18T05:45:38.479Z,964.12
2022-12-18T05:46:38.508Z,964.05
2022-12-18T05:47:38.496Z,963.63
2022-12-18T05:48:38.447Z,962.78
2022-12-18T05:49:38.458Z,962.22
2022-12-18T05:50:38.445Z,962.35
2022-12-18T05:51:38.439Z,961.44
2022-12-18T05:52:38.397Z,961.66
2022-12-18T05:53:38.808Z,962.16
2022-12-18T05:54:38.396Z,962.77
2022-12-18T05:55:38.407Z,963.52
2022-12-18T05:56:38.366Z,963.74
2022-12-18T05:57:38.367Z,964.39
2022-12-18T05:58:38.356Z,965.65
2022-12-18T05:59:38.345Z,967.24
2022-12-18T06:00:38.375Z,968.87
2022-12-18T06:01:38.380Z,969.87
2022-12-18T06:02:38.477Z,970.20
2022-12-18T06:03:38.427Z,970.64
2022-12-18T06:04:38.299Z,971.76
2022-12-18T06:05:38.307Z,971.64
2022-12-18T06:06:38.264Z,971.67
2022-12-18T06:07:38.274Z,972.29
2022-12-18T06:08:41.517Z,973.03
2022-12-18T06:09:39.261Z,973.45
2022-12-18T06:10:38.225Z,974.05
2022-12-18T06:11:38.223Z,974.75
2022-12-18T06:12:38.242Z,975.29
2022-12-18T06:13:38.508Z,975.69
2022-12-18T06:14:38.182Z,976.83
2022-12-18T06:15:38.197Z,978.10
2022-12-18T06:16:38.248Z,977.83
2022-12-18T06:17:38.154Z,978.46
2022-12-18T06:18:38.162Z,978.01
2022-12-18T06:19:38.135Z,977.99
2022-12-18T06:20:38.134Z,978.40
2022-12-18T06:21:38.104Z,979.26
2022-12-18T06:22:38.126Z,979.67
2022-12-18T06:23:38.434Z,980.29
2022-12-18T06:24:38.085Z,980.49
2022-12-18T06:25:38.106Z,980.19
2022-12-18T06:26:38.066Z,979.77
2022-12-18T06:27:38.074Z,979.64
2022-12-18T06:28:38.053Z,979.63
2022-12-18T06:29:38.026Z,980.01
2022-12-18T06:30:38.031Z,979.23
2022-12-18T06:31:38.328Z,978.40
2022-12-18T06:32:38.038Z,977.71
2022-12-18T06:33:38.299Z,977.75
2022-12-18T06:34:37.994Z,977.46
2022-12-18T06:35:38.713Z,977.80
2022-12-18T06:36:37.971Z,977.76
2022-12-18T06:37:37.942Z,977.81
2022-12-18T06:38:38.423Z,977.07
2022-12-18T06:39:37.940Z,976.19
2022-12-18T06:40:37.925Z,976.00
2022-12-18T06:41:38.171Z,976.58
2022-12-18T06:42:37.911Z,977.05
2022-12-18T06:43:38.371Z,977.94
2022-12-18T06:44:37.888Z,978.76
2022-12-18T06:45:37.933Z,978.92
2022-12-18T06:46:37.883Z,978.63
2022-12-18T06:47:37.854Z,977.94
2022-12-18T06:48:37.822Z,977.47
2022-12-18T06:49:37.830Z,977.38
2022-12-18T06:50:37.822Z,977.82
2022-12-18T06:51:37.802Z,977.60
2022-12-18T06:52:37.812Z,978.11
2022-12-18T06:53:38.131Z,978.90
2022-12-18T06:54:37.766Z,979.04
2022-12-18T06:55:37.751Z,978.78
2022-12-18T06:56:37.752Z,979.05
2022-12-18T06:57:37.765Z,978.98
2022-12-18T06:58:37.721Z,979.19
2022-12-18T06:59:37.712Z,979.15
2022-12-18T07:00:37.741Z,979.27
2022-12-18T07:01:37.828Z,979.50
2022-12-18T07:02:37.818Z,980.02
2022-12-18T07:03:38.107Z,980.07
2022-12-18T07:04:37.671Z,979.90
2022-12-18T07:05:37.688Z,979.96
2022-12-18T07:06:37.661Z,980.08
2022-12-18T07:07:37.650Z,979.52
2022-12-18T07:08:41.441Z,979.98
2022-12-18T07:09:37.613Z,980.16
2022-12-18T07:10:40.825Z,982.12
2022-12-18T07:11:38.634Z,983.32
2022-12-18T07:12:37.603Z,983.68
2022-12-18T07:13:37.803Z,983.62
2022-12-18T07:14:37.555Z,983.38
2022-12-18T07:15:37.540Z,983.22
2022-12-18T07:16:37.561Z,983.25
2022-12-18T07:17:37.534Z,983.05
2022-12-18T07:18:37.512Z,983.32
2022-12-18T07:19:37.503Z,983.84
2022-12-18T07:20:37.491Z,984.05
2022-12-18T07:21:37.520Z,984.37
2022-12-18T07:22:37.471Z,984.09
2022-12-18T07:23:37.883Z,983.45
2022-12-18T07:24:37.453Z,982.68
2022-12-18T07:25:37.451Z,984.12
2022-12-18T07:26:37.459Z,985.11
2022-12-18T07:27:37.415Z,986.02
2022-12-18T07:28:37.425Z,984.87
2022-12-18T07:29:37.379Z,983.75
2022-12-18T07:30:37.382Z,986.30
2022-12-18T07:31:37.430Z,987.95
2022-12-18T07:32:37.380Z,988.79
2022-12-18T07:33:37.705Z,989.03
2022-12-18T07:34:37.346Z,988.40
2022-12-18T07:35:37.339Z,987.89
2022-12-18T07:36:37.330Z,987.36
2022-12-18T07:37:37.322Z,986.71
2022-12-18T07:38:37.318Z,986.39
2022-12-18T07:39:37.306Z,986.29
2022-12-18T07:40:37.291Z,986.54
2022-12-18T07:41:37.280Z,987.11
2022-12-18T07:42:37.268Z,987.36
2022-12-18T07:43:37.428Z,987.62
2022-12-18T07:44:37.241Z,988.20
2022-12-18T07:45:37.294Z,988.50
2022-12-18T07:46:37.250Z,988.58
2022-12-18T07:47:37.207Z,988.69
2022-12-18T07:48:37.187Z,988.35
2022-12-18T07:49:37.198Z,988.10
2022-12-18T07:50:37.178Z,988.75
2022-12-18T07:51:37.188Z,989.12
2022-12-18T07:52:37.177Z,989.26
2022-12-18T07:53:37.703Z,988.97
2022-12-18T07:54:37.139Z,988.92
2022-12-18T07:55:59.828Z,988.73
2022-12-18T07:56:38.148Z,988.62
2022-12-18T07:57:55.449Z,988.66
2022-12-18T07:58:38.096Z,988.73
2022-12-18T07:59:37.094Z,988.38
2022-12-18T08:00:37.087Z,988.00
2022-12-18T08:01:37.167Z,987.14
2022-12-18T08:02:38.975Z,986.83
2022-12-18T08:03:37.345Z,987.36
2022-12-18T08:04:37.277Z,987.87
2022-12-18T08:05:37.007Z,988.55
2022-12-18T08:06:37.021Z,989.02
2022-12-18T08:07:37.023Z,989.31
2022-12-18T08:08:36.997Z,989.61
2022-12-18T08:09:40.967Z,989.55
2022-12-18T08:10:36.988Z,989.40
2022-12-18T08:11:36.953Z,989.30
2022-12-18T08:12:36.966Z,989.58
2022-12-18T08:13:38.160Z,989.72
2022-12-18T08:14:36.928Z,990.17
2022-12-18T08:15:37.649Z,990.86
2022-12-18T08:16:36.974Z,991.37
2022-12-18T08:17:37.195Z,991.61
2022-12-18T08:18:36.896Z,991.85
2022-12-18T08:19:37.114Z,992.15
2022-12-18T08:20:37.637Z,992.56
2022-12-18T08:21:36.847Z,993.03
2022-12-18T08:22:37.138Z,993.30
2022-12-18T08:23:42.322Z,993.40
2022-12-18T08:24:38.086Z,993.85
2022-12-18T08:25:37.648Z,994.18
2022-12-18T08:26:36.815Z,994.67
2022-12-18T08:27:36.810Z,994.98
2022-12-18T08:28:36.772Z,995.32
2022-12-18T08:29:37.086Z,995.50
2022-12-18T08:30:36.830Z,995.64
2022-12-18T08:31:36.809Z,995.92
2022-12-18T08:32:38.478Z,996.35
2022-12-18T08:33:36.881Z,996.50
2022-12-18T08:34:38.524Z,996.68
2022-12-18T08:35:41.095Z,997.04
2022-12-18T08:36:37.936Z,997.27
2022-12-18T08:37:36.745Z,997.35
2022-12-18T08:38:36.677Z,997.57
2022-12-18T08:39:36.935Z,997.94
2022-12-18T08:40:36.657Z,998.08
2022-12-18T08:41:36.915Z,998.23
2022-12-18T08:42:36.656Z,998.33
2022-12-18T08:43:36.739Z,998.41
2022-12-18T08:44:36.615Z,998.46
2022-12-18T08:45:36.641Z,998.61
2022-12-18T08:46:36.666Z,998.99
2022-12-18T08:47:36.594Z,999.09
2022-12-18T08:48:36.584Z,999.12
2022-12-18T08:49:36.814Z,999.26
2022-12-18T08:50:36.579Z,999.46
2022-12-18T08:51:36.579Z,999.70
2022-12-18T08:52:36.553Z,999.84
2022-12-18T08:53:36.675Z,1000.05
2022-12-18T08:54:36.795Z,1000.16
2022-12-18T08:55:36.494Z,1000.24
2022-12-18T08:56:36.733Z,1000.29
2022-12-18T08:57:36.474Z,1000.55
2022-12-18T08:58:36.481Z,1000.77
2022-12-18T08:59:36.686Z,1000.92
2022-12-18T09:00:36.435Z,1001.12
2022-12-18T09:01:36.780Z,1001.35
2022-12-18T09:02:36.520Z,1001.63
2022-12-18T09:03:36.393Z,1001.74
2022-12-18T09:04:36.396Z,1001.84
2022-12-18T09:05:36.402Z,1002.00
2022-12-18T09:06:36.373Z,1002.08
2022-12-18T09:07:36.383Z,1002.31
2022-12-18T09:08:36.373Z,1002.58
2022-12-18T09:09:36.359Z,1002.86
2022-12-18T09:10:41.740Z,1002.96
2022-12-18T09:11:37.304Z,1003.08
2022-12-18T09:12:36.581Z,1003.33
2022-12-18T09:13:36.316Z,1003.48
2022-12-18T09:14:36.292Z,1003.59
2022-12-18T09:15:36.553Z,1003.68
2022-12-18T09:16:36.325Z,1003.83
2022-12-18T09:17:36.253Z,1003.95
2022-12-18T09:18:36.275Z,1004.18
2022-12-18T09:19:36.245Z,1004.19
2022-12-18T09:20:36.233Z,1004.33
2022-12-18T09:21:36.976Z,1004.34
2022-12-18T09:22:36.212Z,1004.46
2022-12-18T09:23:36.230Z,1004.68
2022-12-18T09:24:36.183Z,1004.45
2022-12-18T09:25:36.183Z,1004.38
2022-12-18T09:26:36.181Z,1004.40
2022-12-18T09:27:36.138Z,1004.45
2022-12-18T09:28:36.146Z,1004.48
2022-12-18T09:29:36.133Z,1004.71
2022-12-18T09:30:36.250Z,1004.79
2022-12-18T09:31:36.106Z,1004.82
2022-12-18T09:32:36.102Z,1004.76
2022-12-18T09:33:36.112Z,1004.89
2022-12-18T09:34:36.332Z,1005.09
2022-12-18T09:35:36.052Z,1005.21
2022-12-18T09:36:36.056Z,1005.49
2022-12-18T09:37:36.045Z,1005.66
2022-12-18T09:38:36.034Z,1005.90
2022-12-18T09:39:36.031Z,1006.27
2022-12-18T09:40:36.001Z,1006.48
2022-12-18T09:41:36.006Z,1006.54
2022-12-18T09:42:35.981Z,1006.86
2022-12-18T09:43:36.001Z,1006.92
2022-12-18T09:44:41.481Z,1007.00
2022-12-18T09:45:36.961Z,1007.00
2022-12-18T09:46:36.000Z,1007.05
2022-12-18T09:47:35.950Z,1007.13
2022-12-18T09:48:35.960Z,1007.27
2022-12-18T09:49:35.903Z,1007.49
2022-12-18T09:50:35.915Z,1007.73
2022-12-18T09:51:35.880Z,1007.81
2022-12-18T09:52:35.883Z,1007.90
2022-12-18T09:53:35.880Z,1007.93
2022-12-18T09:54:35.877Z,1008.01
2022-12-18T09:55:37.420Z,1008.11
2022-12-18T09:56:35.841Z,1008.38
2022-12-18T09:57:35.820Z,1008.45
2022-12-18T09:58:35.818Z,1008.36
2022-12-18T09:59:35.791Z,1008.36
2022-12-18T10:00:35.812Z,1008.50
2022-12-18T10:01:43.984Z,1008.59
2022-12-18T10:02:36.890Z,1008.57
2022-12-18T10:03:35.782Z,1008.67
2022-12-18T10:04:35.832Z,1008.65
2022-12-18T10:05:35.980Z,1008.59
2022-12-18T10:06:35.730Z,1008.50
2022-12-18T10:07:35.732Z,1008.55
2022-12-18T10:08:35.733Z,1008.68
2022-12-18T10:09:35.698Z,1008.86
2022-12-18T10:10:35.680Z,1008.92
2022-12-18T10:11:35.690Z,1008.80
2022-12-18T10:12:35.694Z,1008.87
2022-12-18T10:13:35.639Z,1008.90
2022-12-18T10:14:35.664Z,1008.92
2022-12-18T10:15:35.681Z,1009.02
2022-12-18T10:16:35.610Z,1009.32
2022-12-18T10:17:35.650Z,1009.28
2022-12-18T10:18:35.589Z,1009.38
2022-12-18T10:19:35.580Z,1009.40
2022-12-18T10:20:35.577Z,1009.46
2022-12-18T10:21:35.560Z,1009.63
2022-12-18T10:22:35.569Z,1009.72
2022-12-18T10:23:35.540Z,1009.77
2022-12-18T10:24:35.541Z,1009.89
2022-12-18T10:25:35.519Z,1009.92
2022-12-18T10:26:35.519Z,1010.04
2022-12-18T10:27:35.532Z,1009.99
2022-12-18T10:28:35.497Z,1010.09
2022-12-18T10:29:35.769Z,1010.22
2022-12-18T10:30:35.463Z,1010.19
2022-12-18T10:31:35.583Z,1010.16
2022-12-18T10:32:35.722Z,1010.14
2022-12-18T10:33:35.459Z,1010.33
2022-12-18T10:34:35.420Z,1010.38
2022-12-18T10:35:35.420Z,1010.41
2022-12-18T10:36:35.391Z,1010.40
2022-12-18T10:37:38.148Z,1010.45
2022-12-18T10:38:35.399Z,1010.57
2022-12-18T10:39:35.686Z,1010.64
2022-12-18T10:40:35.378Z,1010.60
2022-12-18T10:41:35.349Z,1010.84
2022-12-18T10:42:35.344Z,1011.06
2022-12-18T10:43:35.327Z,1011.14
2022-12-18T10:44:35.309Z,1011.16
2022-12-18T10:45:35.319Z,1011.14
2022-12-18T10:46:35.366Z,1011.21
2022-12-18T10:47:35.279Z,1011.27
2022-12-18T10:48:35.276Z,1011.35
2022-12-18T10:49:35.268Z,1011.53
2022-12-18T10:51:09.076Z,1011.70
2022-12-18T10:51:36.230Z,1011.56
2022-12-18T10:52:35.227Z,1011.58
2022-12-18T10:53:35.218Z,1011.63
2022-12-18T10:54:35.207Z,1011.63
2022-12-18T10:55:35.203Z,1011.75
2022-12-18T10:56:35.198Z,1011.82
2022-12-18T10:57:35.188Z,1011.80
2022-12-18T10:58:35.163Z,1011.60
2022-12-18T10:59:35.199Z,1011.70
2022-12-18T11:00:35.139Z,1011.90
2022-12-18T11:01:35.220Z,1011.84
2022-12-18T11:02:35.408Z,1011.64
2022-12-18T11:03:35.147Z,1011.73
2022-12-18T11:04:35.108Z,1011.75
2022-12-18T11:05:35.068Z,1011.77
2022-12-18T11:06:35.077Z,1011.90
2022-12-18T11:07:35.058Z,1012.11
2022-12-18T11:08:35.056Z,1012.37
2022-12-18T11:09:35.067Z,1012.37
2022-12-18T11:10:35.096Z,1012.35
2022-12-18T11:11:35.054Z,1012.44
2022-12-18T11:12:35.016Z,1012.65
2022-12-18T11:13:35.039Z,1012.62
2022-12-18T11:14:34.976Z,1012.76
2022-12-18T11:15:34.998Z,1012.81
2022-12-18T11:16:35.025Z,1012.79
2022-12-18T11:17:34.978Z,1012.71
2022-12-18T11:18:34.931Z,1012.72
2022-12-18T11:19:34.939Z,1012.75
2022-12-18T11:20:34.922Z,1012.65
2022-12-18T11:21:34.898Z,1012.59
2022-12-18T11:22:34.913Z,1012.64
2022-12-18T11:23:34.896Z,1012.61
2022-12-18T11:24:34.868Z,1012.87
2022-12-18T11:25:36.002Z,1012.88
2022-12-18T11:26:34.855Z,1012.77
2022-12-18T11:27:34.884Z,1012.69
2022-12-18T11:28:34.820Z,1012.79
2022-12-18T11:29:35.141Z,1012.79
2022-12-18T11:30:34.849Z,1012.73
2022-12-18T11:31:34.889Z,1012.85
2022-12-18T11:32:34.823Z,1012.88
2022-12-18T11:33:34.802Z,1012.87
2022-12-18T11:34:34.771Z,1012.95
2022-12-18T11:35:34.782Z,1012.96
2022-12-18T11:36:34.758Z,1012.89
2022-12-18T11:37:34.789Z,1012.78
2022-12-18T11:38:34.764Z,1012.59
2022-12-18T11:39:34.713Z,1012.66
2022-12-18T11:40:40.721Z,1012.82
2022-12-18T11:41:35.708Z,1012.82
2022-12-18T11:42:34.677Z,1012.79
2022-12-18T11:43:34.674Z,1012.74
2022-12-18T11:44:34.658Z,1012.62
2022-12-18T11:45:34.654Z,1012.65
2022-12-18T11:46:34.682Z,1012.67
2022-12-18T11:47:34.644Z,1012.72
2022-12-18T11:48:34.616Z,1012.62
2022-12-18T11:49:34.609Z,1012.78
2022-12-18T11:50:34.607Z,1013.04
2022-12-18T11:51:34.597Z,1013.07
2022-12-18T11:52:34.577Z,1013.29
2022-12-18T11:53:34.550Z,1013.34
2022-12-18T11:54:34.561Z,1013.41
2022-12-18T11:55:34.543Z,1013.46
2022-12-18T11:56:34.528Z,1013.37
2022-12-18T11:57:34.528Z,1013.39
2022-12-18T11:58:34.507Z,1013.45
2022-12-18T11:59:34.489Z,1013.49
2022-12-18T12:00:34.481Z,1013.31
2022-12-18T12:01:38.986Z,1013.18
2022-12-18T12:02:35.607Z,1013.08
2022-12-18T12:03:34.506Z,1013.17
2022-12-18T12:04:34.472Z,1013.07
2022-12-18T12:05:34.458Z,1013.14
2022-12-18T12:06:34.409Z,1013.16
2022-12-18T12:07:34.436Z,1013.28
2022-12-18T12:08:34.406Z,1013.20
2022-12-18T12:09:34.375Z,1013.21
2022-12-18T12:10:34.412Z,1013.13
2022-12-18T12:11:34.373Z,1013.18
2022-12-18T12:12:34.387Z,1013.28
2022-12-18T12:13:34.344Z,1013.43
2022-12-18T12:14:34.317Z,1013.39
2022-12-18T12:15:34.359Z,1013.46
2022-12-18T12:16:34.343Z,1013.51
2022-12-18T12:17:34.305Z,1013.61
2022-12-18T12:18:34.285Z,1013.65
2022-12-18T12:19:34.266Z,1013.67
2022-12-18T12:20:36.161Z,1013.67
2022-12-18T12:21:34.246Z,1013.65